createdAt,value
2022-08-17T00:00:43.055Z,8.17
2022-08-17T00:03:10.568Z,8.37
2022-08-17T00:05:44.691Z,7.70
2022-08-17T00:08:14.753Z,8.10
2022-08-17T00:10:44.261Z,8.43
2022-08-17T00:13:14.587Z,8.93
2022-08-17T00:15:43.826Z,9.03
2022-08-17T00:18:57.453Z,8.30
2022-08-17T00:21:03.077Z,7.80
2022-08-17T00:23:31.865Z,8.10
2022-08-17T00:26:00.729Z,7.63
2022-08-17T00:28:29.229Z,8.50
2022-08-17T00:31:01.361Z,8.40
2022-08-17T00:33:31.835Z,8.33
2022-08-17T00:36:02.299Z,8.80
2022-08-17T00:38:30.959Z,8.27
2022-08-17T00:41:01.318Z,9.17
2022-08-17T00:43:33.259Z,9.60
2022-08-17T00:46:03.945Z,9.60
2022-08-17T00:48:32.551Z,10.00
2022-08-17T00:51:08.414Z,9.40
2022-08-17T00:53:40.243Z,8.80
2022-08-17T00:56:12.115Z,9.90
2022-08-17T00:58:40.231Z,8.77
2022-08-17T01:01:11.246Z,9.10
2022-08-17T01:03:40.342Z,8.80
2022-08-17T01:06:10.297Z,9.17
2022-08-17T01:08:42.088Z,9.50
2022-08-17T01:11:10.694Z,10.17
2022-08-17T01:13:42.232Z,10.00
2022-08-17T01:16:17.212Z,7.60
2022-08-17T01:18:48.766Z,9.77
2022-08-17T01:21:27.834Z,8.43
2022-08-17T01:23:57.692Z,8.40
2022-08-17T01:26:26.029Z,9.57
2022-08-17T01:28:55.979Z,8.27
2022-08-17T01:31:27.154Z,9.33
2022-08-17T01:33:55.200Z,8.93
2022-08-17T01:36:23.531Z,8.93
2022-08-17T01:38:51.661Z,9.80
2022-08-17T01:41:23.125Z,8.20
2022-08-17T01:43:55.202Z,9.47
2022-08-17T01:46:27.021Z,9.00
2022-08-17T01:48:57.594Z,10.50
2022-08-17T01:51:27.166Z,9.27
2022-08-17T01:53:58.623Z,8.73
2022-08-17T01:56:30.996Z,9.63
2022-08-17T01:58:58.945Z,9.30
2022-08-17T02:01:32.246Z,9.10
2022-08-17T02:04:01.270Z,9.20
2022-08-17T02:06:31.454Z,9.83
2022-08-17T02:09:16.749Z,9.77
2022-08-17T02:11:47.360Z,9.10
2022-08-17T02:14:15.682Z,10.07
2022-08-17T02:16:44.391Z,10.47
2022-08-17T02:19:16.051Z,9.77
2022-08-17T02:21:47.396Z,9.23
2022-08-17T02:24:58.149Z,10.57
2022-08-17T02:27:11.389Z,9.20
2022-08-17T02:29:39.776Z,8.67
2022-08-17T02:32:09.075Z,9.10
2022-08-17T02:34:37.582Z,9.27
2022-08-17T02:37:06.319Z,9.87
2022-08-17T02:39:34.322Z,9.00
2022-08-17T02:42:03.234Z,9.73
2022-08-17T02:44:39.468Z,9.20
2022-08-17T02:47:10.013Z,15.70
2022-08-17T02:49:38.429Z,12.73
2022-08-17T02:52:08.683Z,9.70
2022-08-17T02:54:42.251Z,10.07
2022-08-17T02:57:11.420Z,8.87
2022-08-17T02:59:48.355Z,9.73
2022-08-17T03:02:17.646Z,10.80
2022-08-17T03:04:45.618Z,9.20
2022-08-17T03:07:13.800Z,10.70
2022-08-17T03:09:41.807Z,10.77
2022-08-17T03:12:12.517Z,10.07
2022-08-17T03:14:43.214Z,10.17
2022-08-17T03:17:15.891Z,10.93
2022-08-17T03:19:45.458Z,11.33
2022-08-17T03:22:37.197Z,11.23
2022-08-17T03:25:01.393Z,11.10
2022-08-17T03:27:30.225Z,10.00
2022-08-17T03:29:59.416Z,11.07
2022-08-17T03:32:27.235Z,10.33
2022-08-17T03:34:59.142Z,9.90
2022-08-17T03:37:27.053Z,9.70
2022-08-17T03:39:54.896Z,11.40
2022-08-17T03:42:32.540Z,10.00
2022-08-17T03:45:03.425Z,9.77
2022-08-17T03:47:49.360Z,8.63
2022-08-17T03:50:35.173Z,8.67
2022-08-17T03:53:22.800Z,9.40
2022-08-17T03:56:08.070Z,8.90
2022-08-17T03:58:37.697Z,9.90
2022-08-17T04:01:08.007Z,8.17
2022-08-17T04:03:36.131Z,9.13
2022-08-17T04:06:04.173Z,9.03
2022-08-17T04:08:32.368Z,9.90
2022-08-17T04:11:02.105Z,9.23
2022-08-17T04:13:30.243Z,9.50
2022-08-17T04:15:59.190Z,8.70
2022-08-17T04:18:28.685Z,8.70
2022-08-17T04:20:56.790Z,9.87
2022-08-17T04:23:32.941Z,9.70
2022-08-17T04:26:01.805Z,9.47
2022-08-17T04:28:30.372Z,10.90
2022-08-17T04:30:58.504Z,10.20
2022-08-17T04:33:31.313Z,9.70
2022-08-17T04:36:01.624Z,9.53
2022-08-17T04:38:32.141Z,9.30
2022-08-17T04:41:18.449Z,8.10
2022-08-17T04:43:49.043Z,8.00
2022-08-17T04:46:18.581Z,8.10
2022-08-17T04:48:50.618Z,7.80
2022-08-17T04:51:22.463Z,7.40
2022-08-17T04:54:02.624Z,8.40
2022-08-17T04:56:31.846Z,7.53
2022-08-17T04:59:03.651Z,7.83
2022-08-17T05:01:34.906Z,8.80
2022-08-17T05:04:33.110Z,6.87
2022-08-17T05:06:55.690Z,7.97
2022-08-17T05:09:24.366Z,6.43
2022-08-17T05:11:52.231Z,7.00
2022-08-17T05:14:32.463Z,7.57
2022-08-17T05:17:01.711Z,7.57
2022-08-17T05:19:36.559Z,6.80
2022-08-17T05:22:06.044Z,6.00
2022-08-17T05:24:38.407Z,6.57
2022-08-17T05:27:17.796Z,5.93
2022-08-17T05:29:47.210Z,6.37
2022-08-17T05:32:39.055Z,5.73
2022-08-17T05:35:10.452Z,6.93
2022-08-17T05:37:38.989Z,6.97
2022-08-17T05:40:08.682Z,7.00
2022-08-17T05:42:36.512Z,6.83
2022-08-17T05:45:05.281Z,5.97
2022-08-17T05:47:33.023Z,6.00
2022-08-17T05:50:02.777Z,6.30
2022-08-17T05:52:48.920Z,7.70
2022-08-17T05:55:27.363Z,7.50
2022-08-17T05:58:07.801Z,6.30
2022-08-17T06:00:44.911Z,5.70
2022-08-17T06:03:30.306Z,5.33
2022-08-17T06:06:13.387Z,5.70
2022-08-17T06:08:51.771Z,5.70
2022-08-17T06:11:30.486Z,5.53
2022-08-17T06:14:14.734Z,5.67
2022-08-17T06:16:45.931Z,5.77
2022-08-17T06:19:18.355Z,5.37
2022-08-17T06:21:49.436Z,5.30
2022-08-17T06:24:27.417Z,5.23
2022-08-17T06:26:56.376Z,4.60
2022-08-17T06:29:37.483Z,4.77
2022-08-17T06:32:08.592Z,4.77
2022-08-17T06:34:38.466Z,4.20
2022-08-17T06:37:15.325Z,4.63
2022-08-17T06:39:54.358Z,4.17
2022-08-17T06:42:54.882Z,5.40
2022-08-17T06:45:26.264Z,4.87
2022-08-17T06:48:03.119Z,4.43
2022-08-17T06:50:37.088Z,5.23
2022-08-17T06:53:21.361Z,4.03
2022-08-17T06:55:59.763Z,4.60
2022-08-17T06:58:31.484Z,4.57
2022-08-17T07:01:05.742Z,5.13
2022-08-17T07:03:39.466Z,3.90
2022-08-17T07:06:13.564Z,3.93
2022-08-17T07:08:52.077Z,4.07
2022-08-17T07:11:28.682Z,4.47
2022-08-17T07:14:08.317Z,4.17
2022-08-17T07:16:42.515Z,3.70
2022-08-17T07:19:11.209Z,4.00
2022-08-17T07:21:50.337Z,3.37
2022-08-17T07:24:35.886Z,4.30
2022-08-17T07:27:12.566Z,3.60
2022-08-17T07:29:44.159Z,3.97
2022-08-17T07:32:18.691Z,3.60
2022-08-17T07:35:08.499Z,3.30
2022-08-17T07:37:40.740Z,3.20
2022-08-17T07:40:21.366Z,3.00
2022-08-17T07:43:23.102Z,3.33
2022-08-17T07:46:24.784Z,2.97
2022-08-17T07:48:54.851Z,3.07
2022-08-17T07:51:30.083Z,3.20
2022-08-17T07:54:13.578Z,3.27
2022-08-17T07:56:47.197Z,3.53
2022-08-17T07:59:23.175Z,3.23
2022-08-17T08:02:18.810Z,3.50
2022-08-17T08:05:01.353Z,2.73
2022-08-17T08:07:34.921Z,2.73
2022-08-17T08:10:11.604Z,2.63
2022-08-17T08:12:41.725Z,2.50
2022-08-17T08:15:21.389Z,2.57
2022-08-17T08:17:53.882Z,3.20
2022-08-17T08:20:53.289Z,2.60
2022-08-17T08:23:43.023Z,2.83
2022-08-17T08:26:21.771Z,2.50
2022-08-17T08:29:13.068Z,2.10
2022-08-17T08:32:00.185Z,2.83
2022-08-17T08:35:00.178Z,2.55
2022-08-17T08:37:49.371Z,2.45
2022-08-17T08:40:34.590Z,1.98
2022-08-17T08:43:15.069Z,1.50
2022-08-17T08:45:50.759Z,2.05
2022-08-17T08:48:56.493Z,2.50
2022-08-17T08:51:37.529Z,1.80
2022-08-17T08:54:16.029Z,1.83
2022-08-17T08:57:21.882Z,1.42
2022-08-17T08:59:57.707Z,2.10
2022-08-17T09:02:40.224Z,1.95
2022-08-17T09:05:22.692Z,1.80
2022-08-17T09:08:04.716Z,1.67
2022-08-17T09:10:40.887Z,1.55
2022-08-17T09:13:21.158Z,1.88
2022-08-17T09:15:55.965Z,1.70
2022-08-17T09:19:01.661Z,1.48
2022-08-17T09:21:23.021Z,1.17
2022-08-17T09:24:02.750Z,1.40
2022-08-17T09:26:35.511Z,1.50
2022-08-17T09:29:09.986Z,1.60
2022-08-17T09:31:49.298Z,2.23
2022-08-17T09:34:26.968Z,1.87
2022-08-17T09:37:08.558Z,2.10
2022-08-17T09:39:44.069Z,1.80
2022-08-17T09:42:22.689Z,1.53
2022-08-17T09:44:56.706Z,1.60
2022-08-17T09:47:31.708Z,1.77
2022-08-17T09:50:07.299Z,1.90
2022-08-17T09:52:36.639Z,1.60
2022-08-17T09:55:07.837Z,1.90
2022-08-17T09:57:51.770Z,2.00
2022-08-17T10:00:25.439Z,2.80
2022-08-17T10:03:17.167Z,1.40
2022-08-17T10:05:56.357Z,1.80
2022-08-17T10:08:34.936Z,1.70
2022-08-17T10:11:33.469Z,2.00
2022-08-17T10:14:36.333Z,1.80
2022-08-17T10:17:04.766Z,1.83
2022-08-17T10:19:37.497Z,1.73
2022-08-17T10:22:34.914Z,1.90
2022-08-17T10:25:42.861Z,1.88
2022-08-17T10:28:23.722Z,1.50
2022-08-17T10:34:01.166Z,2.00
2022-08-17T10:36:43.225Z,1.60
2022-08-17T10:39:22.718Z,2.33
2022-08-17T10:41:57.001Z,1.80
2022-08-17T10:44:39.319Z,1.53
2022-08-17T10:47:11.924Z,1.87
2022-08-17T10:49:47.661Z,2.03
2022-08-17T10:52:48.954Z,2.10
2022-08-17T10:55:18.971Z,1.63
2022-08-17T10:57:50.951Z,1.90
2022-08-17T11:01:12.707Z,2.03
2022-08-17T11:03:55.107Z,1.73
2022-08-17T11:06:32.858Z,2.33
2022-08-17T11:09:28.880Z,2.23
2022-08-17T11:12:12.927Z,2.00
2022-08-17T11:15:05.076Z,2.10
2022-08-17T11:17:54.054Z,2.27
2022-08-17T11:20:40.863Z,2.10
2022-08-17T11:23:22.187Z,2.00
2022-08-17T11:25:54.156Z,2.50
2022-08-17T11:28:26.093Z,2.30
2022-08-17T11:30:58.834Z,2.40
2022-08-17T11:34:04.854Z,2.50
2022-08-17T11:37:12.350Z,2.53
2022-08-17T11:40:07.325Z,2.57
2022-08-17T11:42:48.959Z,3.00
2022-08-17T11:45:54.403Z,2.50
2022-08-17T11:48:51.695Z,2.60
2022-08-17T11:51:42.062Z,2.20
2022-08-17T11:54:34.171Z,2.70
2022-08-17T11:57:40.624Z,2.57
2022-08-17T12:00:11.350Z,1.63
2022-08-17T12:02:47.084Z,2.10
2022-08-17T12:05:36.992Z,1.90
2022-08-17T12:08:22.675Z,2.30
2022-08-17T12:10:57.966Z,2.13
2022-08-17T12:13:27.459Z,2.40
2022-08-17T12:16:07.553Z,2.33
2022-08-17T12:18:39.458Z,1.90
2022-08-17T12:21:28.218Z,1.77
2022-08-17T12:24:06.432Z,3.23
2022-08-17T12:26:37.006Z,2.93
2022-08-17T12:29:09.181Z,3.10
2022-08-17T12:31:44.661Z,2.70
2022-08-17T12:34:17.141Z,1.97
2022-08-17T12:36:47.984Z,2.40
2022-08-17T12:39:21.541Z,2.90
2022-08-17T12:42:01.953Z,2.40
2022-08-17T12:44:32.308Z,2.73
2022-08-17T12:47:04.912Z,2.13
2022-08-17T12:49:36.007Z,3.03
2022-08-17T12:52:14.898Z,2.63
2022-08-17T12:54:49.045Z,2.47
2022-08-17T12:57:20.284Z,3.13
2022-08-17T12:59:53.316Z,2.57
2022-08-17T13:02:31.484Z,2.80
2022-08-17T13:05:02.259Z,3.00
2022-08-17T13:07:36.479Z,2.40
2022-08-17T13:10:05.433Z,2.70
2022-08-17T13:12:37.014Z,3.27
2022-08-17T13:15:05.460Z,2.70
2022-08-17T13:17:36.119Z,2.37
2022-08-17T13:20:07.046Z,3.73
2022-08-17T13:22:36.699Z,2.90
2022-08-17T13:25:09.272Z,2.27
2022-08-17T13:27:38.607Z,3.20
2022-08-17T13:30:12.664Z,2.70
2022-08-17T13:32:45.188Z,2.27
2022-08-17T13:35:39.201Z,3.37
2022-08-17T13:38:12.698Z,3.50
2022-08-17T13:40:45.203Z,2.40
2022-08-17T13:43:13.433Z,2.50
2022-08-17T13:45:50.425Z,2.00
2022-08-17T13:48:27.497Z,2.47
2022-08-17T13:51:15.122Z,2.50
2022-08-17T13:53:55.830Z,1.80
2022-08-17T13:56:38.722Z,2.60
2022-08-17T13:59:11.342Z,2.70
2022-08-17T14:01:43.076Z,2.77
2022-08-17T14:04:13.347Z,2.20
2022-08-17T14:06:54.216Z,2.40
2022-08-17T14:09:29.796Z,2.60
2022-08-17T14:12:02.075Z,2.60
2022-08-17T14:14:30.790Z,2.27
2022-08-17T14:16:58.685Z,2.13
2022-08-17T14:19:26.997Z,2.90
2022-08-17T14:21:56.890Z,2.80
2022-08-17T14:24:28.675Z,2.33
2022-08-17T14:26:57.694Z,2.40
2022-08-17T14:29:27.945Z,2.97
2022-08-17T14:31:57.625Z,3.10
2022-08-17T14:34:26.698Z,2.70
2022-08-17T14:36:54.465Z,2.80
2022-08-17T14:39:22.140Z,2.70
2022-08-17T14:41:53.306Z,2.93
2022-08-17T14:44:21.115Z,3.10
2022-08-17T14:46:50.798Z,3.17
2022-08-17T14:49:20.664Z,3.03
2022-08-17T14:51:49.156Z,2.60
2022-08-17T14:54:33.492Z,2.67
2022-08-17T14:57:22.465Z,3.20
2022-08-17T14:59:54.895Z,2.90
2022-08-17T15:02:29.726Z,2.87
2022-08-17T15:05:03.020Z,3.17
2022-08-17T15:07:31.354Z,3.60
2022-08-17T15:10:00.822Z,6.70
2022-08-17T15:12:34.091Z,2.90
2022-08-17T15:15:04.661Z,3.10
2022-08-17T15:17:44.879Z,3.53
2022-08-17T15:20:15.911Z,3.60
2022-08-17T15:22:45.348Z,3.07
2022-08-17T15:25:14.718Z,3.33
2022-08-17T15:27:44.355Z,3.33
2022-08-17T15:30:13.674Z,4.87
2022-08-17T15:32:46.865Z,4.70
2022-08-17T15:35:28.305Z,4.40
2022-08-17T15:37:58.369Z,7.07
2022-08-17T15:40:26.683Z,5.23
2022-08-17T15:42:57.702Z,4.10
2022-08-17T15:45:28.677Z,3.23
2022-08-17T15:47:56.449Z,3.30
2022-08-17T15:50:24.217Z,2.77
2022-08-17T15:52:57.925Z,3.80
2022-08-17T15:55:28.141Z,3.30
2022-08-17T15:57:57.408Z,3.53
2022-08-17T16:00:28.619Z,4.37
2022-08-17T16:03:44.586Z,3.00
2022-08-17T16:05:46.361Z,3.17
2022-08-17T16:08:20.039Z,3.53
2022-08-17T16:10:49.580Z,3.73
2022-08-17T16:13:19.669Z,3.40
2022-08-17T16:15:57.305Z,3.90
2022-08-17T16:18:28.297Z,3.43
2022-08-17T16:20:56.715Z,3.33
2022-08-17T16:23:25.342Z,4.13
2022-08-17T16:25:54.439Z,3.53
2022-08-17T16:28:36.061Z,4.40
2022-08-17T16:31:08.073Z,4.23
2022-08-17T16:33:39.336Z,4.30
2022-08-17T16:36:08.403Z,3.80
2022-08-17T16:38:37.093Z,4.80
2022-08-17T16:41:05.849Z,6.43
2022-08-17T16:43:36.046Z,7.30
2022-08-17T16:46:03.764Z,4.60
2022-08-17T16:48:32.019Z,4.40
2022-08-17T16:51:03.838Z,3.93
2022-08-17T16:53:32.621Z,3.07
2022-08-17T16:56:00.446Z,4.00
2022-08-17T16:58:28.293Z,3.33
2022-08-17T17:00:59.393Z,3.50
2022-08-17T17:03:30.555Z,3.40
2022-08-17T17:06:08.727Z,3.00
2022-08-17T17:08:44.404Z,3.50
2022-08-17T17:11:16.756Z,3.73
2022-08-17T17:13:50.307Z,6.10
2022-08-17T17:16:24.346Z,4.93
2022-08-17T17:19:06.956Z,5.27
2022-08-17T17:21:44.913Z,5.90
2022-08-17T17:24:18.791Z,6.00
2022-08-17T17:26:59.483Z,5.37
2022-08-17T17:29:48.125Z,6.30
2022-08-17T17:32:23.134Z,5.17
2022-08-17T17:34:56.042Z,7.03
2022-08-17T17:37:28.634Z,4.67
2022-08-17T17:40:01.076Z,6.57
2022-08-17T17:42:33.041Z,4.83
2022-08-17T17:45:08.086Z,4.43
2022-08-17T17:47:38.335Z,4.67
2022-08-17T17:50:07.839Z,6.03
2022-08-17T17:52:47.710Z,4.73
2022-08-17T17:55:25.908Z,4.80
2022-08-17T17:58:04.593Z,4.67
2022-08-17T18:00:39.448Z,4.13
2022-08-17T18:03:26.814Z,4.20
2022-08-17T18:06:12.563Z,5.20
2022-08-17T18:08:56.068Z,4.10
2022-08-17T18:11:46.976Z,4.43
2022-08-17T18:14:37.568Z,4.47
2022-08-17T18:17:07.175Z,7.80
2022-08-17T18:19:38.862Z,6.47
2022-08-17T18:22:14.399Z,5.80
2022-08-17T18:24:44.417Z,4.93
2022-08-17T18:27:23.453Z,6.50
2022-08-17T18:29:52.799Z,4.10
2022-08-17T18:32:27.887Z,4.27
2022-08-17T18:34:59.468Z,4.77
2022-08-17T18:37:49.284Z,4.10
2022-08-17T18:40:37.654Z,5.13
2022-08-17T18:43:14.249Z,4.77
2022-08-17T18:45:46.929Z,4.33
2022-08-17T18:48:36.480Z,4.97
2022-08-17T18:51:37.269Z,4.13
2022-08-17T18:54:16.466Z,4.40
2022-08-17T18:56:49.290Z,4.27
2022-08-17T18:59:28.310Z,4.20
2022-08-17T19:02:27.208Z,4.97
2022-08-17T19:05:09.693Z,5.30
2022-08-17T19:07:42.179Z,4.70
2022-08-17T19:10:22.443Z,4.43
2022-08-17T19:13:00.393Z,4.23
2022-08-17T19:15:34.579Z,4.70
2022-08-17T19:18:15.135Z,4.57
2022-08-17T19:20:48.941Z,4.33
2022-08-17T19:23:26.281Z,4.57
2022-08-17T19:25:58.649Z,4.70
2022-08-17T19:28:31.078Z,5.53
2022-08-17T19:31:03.972Z,5.90
2022-08-17T19:33:32.626Z,5.50
2022-08-17T19:36:07.348Z,5.63
2022-08-17T19:38:45.084Z,6.70
2022-08-17T19:41:22.065Z,6.57
2022-08-17T19:44:07.749Z,5.83
2022-08-17T19:46:49.876Z,5.40
2022-08-17T19:49:33.247Z,5.83
2022-08-17T19:52:27.325Z,6.60
2022-08-17T19:55:01.587Z,6.50
2022-08-17T19:57:44.085Z,5.83
2022-08-17T20:00:16.416Z,5.70
2022-08-17T20:02:52.649Z,6.60
2022-08-17T20:05:24.953Z,6.47
2022-08-17T20:07:59.004Z,5.70
2022-08-17T20:10:39.637Z,5.67
2022-08-17T20:13:11.902Z,6.27
2022-08-17T20:15:43.170Z,5.23
2022-08-17T20:18:20.865Z,5.13
2022-08-17T20:20:57.384Z,6.37
2022-08-17T20:23:44.735Z,6.70
2022-08-17T20:26:21.944Z,7.17
2022-08-17T20:29:37.008Z,9.50
2022-08-17T20:32:27.747Z,7.67
2022-08-17T20:35:08.872Z,6.67
2022-08-17T20:37:43.066Z,5.77
2022-08-17T20:40:36.673Z,6.20
2022-08-17T20:43:48.073Z,5.87
2022-08-17T20:46:47.564Z,6.07
2022-08-17T20:49:24.385Z,6.03
2022-08-17T20:52:01.757Z,6.43
2022-08-17T20:54:50.080Z,5.63
2022-08-17T20:57:48.442Z,5.60
2022-08-17T21:00:44.706Z,5.80
2022-08-17T21:03:51.288Z,5.40
2022-08-17T21:06:23.347Z,5.50
2022-08-17T21:08:54.838Z,5.50
2022-08-17T21:11:56.975Z,5.00
2022-08-17T21:14:44.398Z,5.80
2022-08-17T21:17:40.731Z,5.20
2022-08-17T21:20:32.218Z,5.63
2022-08-17T21:23:35.455Z,6.13
2022-08-17T21:26:17.662Z,6.60
2022-08-17T21:29:31.779Z,5.77
2022-08-17T21:32:18.495Z,6.33
2022-08-17T21:35:28.428Z,6.27
2022-08-17T21:38:03.197Z,5.33
2022-08-17T21:40:33.549Z,5.20
2022-08-17T21:43:09.334Z,6.17
2022-08-17T21:45:39.446Z,5.80
2022-08-17T21:48:13.045Z,5.13
2022-08-17T21:50:47.515Z,5.03
2022-08-17T21:53:28.090Z,6.13
2022-08-17T21:55:58.643Z,5.50
2022-08-17T21:58:32.460Z,6.90
2022-08-17T22:01:22.886Z,6.67
2022-08-17T22:04:01.531Z,6.60
2022-08-17T22:06:36.603Z,6.80
2022-08-17T22:09:15.812Z,6.87
2022-08-17T22:11:52.656Z,6.37
2022-08-17T22:14:22.700Z,6.53
2022-08-17T22:17:07.803Z,7.00
2022-08-17T22:19:36.270Z,6.87
2022-08-17T22:22:07.648Z,6.70
2022-08-17T22:24:36.791Z,6.33
2022-08-17T22:27:10.395Z,5.97
2022-08-17T22:29:57.095Z,6.47
2022-08-17T22:32:42.659Z,8.17
2022-08-17T22:35:37.976Z,7.50
2022-08-17T22:38:35.302Z,6.57
2022-08-17T22:41:26.692Z,6.47
2022-08-17T22:43:57.710Z,6.60
2022-08-17T22:46:26.639Z,7.13
2022-08-17T22:48:58.169Z,6.90
2022-08-17T22:51:30.465Z,6.43
2022-08-17T22:54:21.489Z,6.40
2022-08-17T22:57:12.882Z,6.40
2022-08-17T22:59:46.521Z,5.80
2022-08-17T23:02:22.004Z,6.20
2022-08-17T23:04:52.398Z,6.77
2022-08-17T23:07:21.850Z,6.80
2022-08-17T23:09:53.309Z,6.47
2022-08-17T23:12:26.762Z,6.53
2022-08-17T23:15:00.523Z,6.53
2022-08-17T23:17:33.971Z,7.63
2022-08-17T23:20:06.490Z,6.43
2022-08-17T23:22:34.397Z,5.70
2022-08-17T23:25:06.154Z,6.47
2022-08-17T23:27:33.928Z,6.30
2022-08-17T23:30:01.665Z,5.83
2022-08-17T23:32:29.759Z,5.80
2022-08-17T23:34:59.073Z,6.70
2022-08-17T23:37:28.773Z,7.13
2022-08-17T23:39:56.539Z,6.90
2022-08-17T23:42:26.080Z,6.30
2022-08-17T23:44:54.015Z,7.37
2022-08-17T23:47:21.789Z,7.10
2022-08-17T23:49:49.529Z,6.57
2022-08-17T23:52:22.728Z,6.63
2022-08-17T23:54:50.833Z,7.13
2022-08-17T23:57:33.893Z,6.90
